createdAt,value
2018-11-10T00:00:42.760Z,100574.71
2018-11-10T00:03:47.198Z,100566.64
2018-11-10T00:06:51.099Z,100560.77
2018-11-10T00:09:54.998Z,100557.34
2018-11-10T00:12:58.899Z,100547.50
2018-11-10T00:16:03.134Z,100553.08
2018-11-10T00:19:07.371Z,100545.81
2018-11-10T00:22:11.455Z,100536.99
2018-11-10T00:25:16.618Z,100535.71
2018-11-10T00:28:21.048Z,100538.80
2018-11-10T00:31:25.353Z,100539.48
2018-11-10T00:34:29.289Z,100539.17
2018-11-10T00:37:33.651Z,100538.34
2018-11-10T00:40:37.905Z,100538.42
2018-11-10T00:43:41.803Z,100547.38
2018-11-10T00:46:46.028Z,100545.05
2018-11-10T00:49:50.250Z,100547.00
2018-11-10T00:52:54.473Z,100541.81
2018-11-10T00:55:58.719Z,100534.50
2018-11-10T00:59:02.989Z,100537.14
2018-11-10T01:02:06.922Z,100533.45
2018-11-10T01:05:11.601Z,100533.67
2018-11-10T01:08:15.683Z,100523.88
2018-11-10T01:11:19.807Z,100526.37
2018-11-10T01:14:23.701Z,100520.11
2018-11-10T01:17:27.586Z,100515.36
2018-11-10T01:20:31.861Z,100511.91
2018-11-10T01:23:35.753Z,100494.05
2018-11-10T01:26:39.842Z,100486.28
2018-11-10T01:29:43.805Z,100478.23
2018-11-10T01:32:47.721Z,100479.44
2018-11-10T01:35:51.653Z,100481.99
2018-11-10T01:38:55.582Z,100479.05
2018-11-10T01:41:59.530Z,100480.94
2018-11-10T01:45:03.875Z,100471.59
2018-11-10T01:48:07.977Z,100463.77
2018-11-10T01:51:12.077Z,100467.30
2018-11-10T01:54:15.990Z,100470.36
2018-11-10T01:57:19.941Z,100472.80
2018-11-10T02:00:24.197Z,100462.18
2018-11-10T02:03:28.876Z,100453.78
2018-11-10T02:06:33.307Z,100454.53
2018-11-10T02:09:37.433Z,100454.53
2018-11-10T02:12:41.433Z,100445.98
2018-11-10T02:15:45.526Z,100437.13
2018-11-10T02:18:49.688Z,100426.52
2018-11-10T02:21:54.406Z,100427.56
2018-11-10T02:24:58.327Z,100421.54
2018-11-10T02:28:02.817Z,100417.32
2018-11-10T02:31:06.722Z,100418.34
2018-11-10T02:34:10.672Z,100419.20
2018-11-10T02:37:15.471Z,100417.47
2018-11-10T02:40:19.771Z,100407.67
2018-11-10T02:43:23.710Z,100409.83
2018-11-10T02:46:27.631Z,100401.09
2018-11-10T02:49:31.565Z,100404.93
2018-11-10T02:52:35.810Z,100404.25
2018-11-10T02:55:39.890Z,100403.27
2018-11-10T02:58:43.834Z,100395.29
2018-11-10T03:01:47.771Z,100393.63
2018-11-10T03:04:51.705Z,100391.64
2018-11-10T03:07:55.628Z,100379.81
2018-11-10T03:10:59.538Z,100379.51
2018-11-10T03:14:04.003Z,100370.70
2018-11-10T03:17:07.921Z,100370.74
2018-11-10T03:20:14.374Z,100354.02
2018-11-10T03:23:18.309Z,100356.05
2018-11-10T03:26:22.242Z,100355.94
2018-11-10T03:29:26.246Z,100354.09
2018-11-10T03:32:30.207Z,100350.52
2018-11-10T03:35:34.125Z,100347.80
2018-11-10T03:38:38.054Z,100344.00
2018-11-10T03:41:41.969Z,100332.64
2018-11-10T03:44:45.893Z,100334.63
2018-11-10T03:47:49.842Z,100328.65
2018-11-10T03:50:53.957Z,100325.41
2018-11-10T03:53:57.887Z,100326.98
2018-11-10T03:57:02.145Z,100323.25
2018-11-10T04:00:09.743Z,100326.19
2018-11-10T04:03:13.923Z,100323.89
2018-11-10T04:06:18.225Z,100314.94
2018-11-10T04:09:22.448Z,100315.39
2018-11-10T04:12:28.902Z,100318.56
2018-11-10T04:15:32.806Z,100312.00
2018-11-10T04:18:37.005Z,100310.12
2018-11-10T04:21:40.932Z,100308.85
2018-11-10T04:24:44.939Z,100304.78
2018-11-10T04:27:48.853Z,100309.00
2018-11-10T04:30:52.761Z,100307.50
2018-11-10T04:33:56.689Z,100306.81
2018-11-10T04:37:00.601Z,100304.19
2018-11-10T04:40:04.733Z,100296.74
2018-11-10T04:43:08.641Z,100295.91
2018-11-10T04:46:12.569Z,100295.30
2018-11-10T04:49:16.482Z,100298.92
2018-11-10T04:52:20.396Z,100297.45
2018-11-10T04:55:24.505Z,100291.47
2018-11-10T04:58:28.418Z,100286.35
2018-11-10T05:01:32.357Z,100289.28
2018-11-10T05:04:36.438Z,100280.71
2018-11-10T05:07:40.434Z,100279.43
2018-11-10T05:10:44.459Z,100251.73
2018-11-10T05:13:48.358Z,100242.63
2018-11-10T05:16:52.269Z,100238.80
2018-11-10T05:19:56.193Z,100245.64
2018-11-10T05:23:00.419Z,100243.39
2018-11-10T05:26:04.517Z,100249.29
2018-11-10T05:29:08.829Z,100242.44
2018-11-10T05:32:12.790Z,100240.83
2018-11-10T05:35:16.698Z,100244.09
2018-11-10T05:38:20.813Z,100244.02
2018-11-10T05:41:25.133Z,100236.42
2018-11-10T05:44:29.118Z,100230.85
2018-11-10T05:47:33.024Z,100235.06
2018-11-10T05:50:36.937Z,100232.36
2018-11-10T05:53:40.854Z,100231.07
2018-11-10T05:56:44.769Z,100225.50
2018-11-10T05:59:48.693Z,100226.25
2018-11-10T06:02:52.593Z,100220.38
2018-11-10T06:05:56.738Z,100226.78
2018-11-10T06:09:00.651Z,100222.12
2018-11-10T06:12:05.215Z,100236.41
2018-11-10T06:15:10.001Z,100234.91
2018-11-10T06:18:13.899Z,100235.37
2018-11-10T06:21:17.805Z,100240.33
2018-11-10T06:24:21.783Z,100247.55
2018-11-10T06:27:25.713Z,100242.52
2018-11-10T06:30:29.609Z,100246.35
2018-11-10T06:33:33.519Z,100248.38
2018-11-10T06:36:37.423Z,100243.80
2018-11-10T06:39:41.353Z,100236.41
2018-11-10T06:42:45.341Z,100233.44
2018-11-10T06:45:49.590Z,100227.03
2018-11-10T06:48:53.541Z,100233.44
2018-11-10T06:51:57.471Z,100238.78
2018-11-10T06:55:01.378Z,100242.23
2018-11-10T06:58:05.633Z,100242.69
2018-11-10T07:01:09.538Z,100230.42
2018-11-10T07:04:13.479Z,100241.34
2018-11-10T07:07:17.416Z,100248.94
2018-11-10T07:10:21.754Z,100247.66
2018-11-10T07:13:25.674Z,100246.38
2018-11-10T07:16:29.584Z,100230.56
2018-11-10T07:19:33.562Z,100240.73
2018-11-10T07:22:37.538Z,100241.56
2018-11-10T07:25:41.474Z,100232.32
2018-11-10T07:28:45.409Z,100224.19
2018-11-10T07:31:49.351Z,100216.06
2018-11-10T07:34:53.542Z,100218.17
2018-11-10T07:37:57.438Z,100212.81
2018-11-10T07:41:01.375Z,100209.67
2018-11-10T07:44:05.804Z,100202.45
2018-11-10T07:47:09.719Z,100193.48
2018-11-10T07:50:13.676Z,100191.97
2018-11-10T07:53:17.584Z,100188.50
2018-11-10T07:56:21.504Z,100183.76
2018-11-10T07:59:25.395Z,100184.05
2018-11-10T08:02:29.308Z,100176.45
2018-11-10T08:05:33.626Z,100187.59
2018-11-10T08:08:37.529Z,100187.47
2018-11-10T08:11:41.520Z,100183.47
2018-11-10T08:14:45.896Z,100180.98
2018-11-10T08:17:49.812Z,100177.45
2018-11-10T08:20:53.778Z,100165.14
2018-11-10T08:23:57.918Z,100164.39
2018-11-10T08:27:01.839Z,100156.42
2018-11-10T08:30:07.292Z,100170.42
2018-11-10T08:33:11.201Z,100157.99
2018-11-10T08:36:15.133Z,100168.48
2018-11-10T08:39:19.102Z,100180.91
2018-11-10T08:42:23.147Z,100181.87
2018-11-10T08:45:27.229Z,100184.43
2018-11-10T08:48:31.124Z,100176.62
2018-11-10T08:51:35.042Z,100172.70
2018-11-10T08:54:39.296Z,100161.55
2018-11-10T08:57:44.038Z,100158.82
2018-11-10T09:00:48.018Z,100163.57
2018-11-10T09:03:51.931Z,100154.61
2018-11-10T09:06:55.851Z,100163.86
2018-11-10T09:09:59.795Z,100169.89
2018-11-10T09:13:03.863Z,100176.59
2018-11-10T09:16:07.963Z,100171.02
2018-11-10T09:19:11.875Z,100169.89
2018-11-10T09:22:16.327Z,100192.03
2018-11-10T09:25:20.235Z,100198.44
2018-11-10T09:28:24.134Z,100190.97
2018-11-10T09:31:42.046Z,100204.60
2018-11-10T09:34:49.997Z,100208.89
2018-11-10T09:37:53.910Z,100212.28
2018-11-10T09:40:57.819Z,100199.87
2018-11-10T09:44:01.722Z,100210.42
2018-11-10T09:47:06.084Z,100209.52
2018-11-10T09:50:15.214Z,100220.88
2018-11-10T09:53:19.125Z,100227.66
2018-11-10T09:56:23.349Z,100221.17
2018-11-10T09:59:27.241Z,100221.86
2018-11-10T10:02:31.562Z,100230.05
2018-11-10T10:05:35.257Z,100214.22
2018-11-10T10:08:39.470Z,100220.55
2018-11-10T10:11:43.504Z,100211.07
2018-11-10T10:14:47.394Z,100205.78
2018-11-10T10:17:51.295Z,100224.84
2018-11-10T10:20:55.186Z,100202.14
2018-11-10T10:23:59.103Z,100204.57
2018-11-10T10:27:03.375Z,100197.54
2018-11-10T10:30:10.662Z,100210.19
2018-11-10T10:33:14.929Z,100217.26
2018-11-10T10:36:18.862Z,100206.03
2018-11-10T10:39:22.947Z,100202.02
2018-11-10T10:42:26.856Z,100202.59
2018-11-10T10:45:31.074Z,100186.33
2018-11-10T10:48:35.072Z,100186.16
2018-11-10T10:51:39.434Z,100192.86
2018-11-10T10:54:43.322Z,100186.27
2018-11-10T10:57:48.742Z,100179.72
2018-11-10T11:00:58.054Z,100176.16
2018-11-10T11:04:07.302Z,100157.12
2018-11-10T11:07:11.219Z,100153.64
2018-11-10T11:10:15.126Z,100154.69
2018-11-10T11:13:19.016Z,100148.56
2018-11-10T11:16:23.097Z,100155.54
2018-11-10T11:19:27.002Z,100152.00
2018-11-10T11:22:30.916Z,100153.48
2018-11-10T11:25:34.997Z,100141.84
2018-11-10T11:28:39.405Z,100147.97
2018-11-10T11:31:43.637Z,100135.87
2018-11-10T11:34:47.541Z,100139.91
2018-11-10T11:37:51.464Z,100132.95
2018-11-10T11:40:55.563Z,100137.56
2018-11-10T11:43:59.666Z,100147.65
2018-11-10T11:47:03.871Z,100154.80
2018-11-10T11:50:19.922Z,100163.23
2018-11-10T11:53:23.786Z,100154.93
2018-11-10T11:56:27.649Z,100145.31
2018-11-10T11:59:31.512Z,100146.31
2018-11-10T12:02:35.379Z,100146.99
2018-11-10T12:05:39.793Z,100146.44
2018-11-10T12:08:43.663Z,100141.13
2018-11-10T12:11:47.516Z,100145.71
2018-11-10T12:14:51.596Z,100149.47
2018-11-10T12:17:55.470Z,100148.49
2018-11-10T12:20:59.387Z,100148.67
2018-11-10T12:24:03.413Z,100142.63
2018-11-10T12:27:07.442Z,100148.48
2018-11-10T12:30:11.982Z,100146.66
2018-11-10T12:33:15.907Z,100144.85
2018-11-10T12:36:20.122Z,100139.89
2018-11-10T12:39:23.981Z,100143.20
2018-11-10T12:42:28.056Z,100142.27
2018-11-10T12:45:31.918Z,100140.44
2018-11-10T12:48:35.778Z,100147.26
2018-11-10T12:51:39.821Z,100141.94
2018-11-10T12:54:43.738Z,100140.92
2018-11-10T12:57:47.782Z,100142.48
2018-11-10T13:00:51.661Z,100138.53
2018-11-10T13:03:55.646Z,100136.72
2018-11-10T13:06:59.745Z,100141.31
2018-11-10T13:10:03.829Z,100143.78
2018-11-10T13:13:07.688Z,100145.89
2018-11-10T13:16:11.554Z,100144.05
2018-11-10T13:19:15.437Z,100146.89
2018-11-10T13:22:19.353Z,100143.05
2018-11-10T13:25:23.545Z,100140.41
2018-11-10T13:28:27.409Z,100142.88
2018-11-10T13:31:31.331Z,100144.90
2018-11-10T13:34:35.355Z,100141.97
2018-11-10T13:37:39.226Z,100141.41
2018-11-10T13:40:43.095Z,100140.03
2018-11-10T13:43:47.478Z,100137.92
2018-11-10T13:46:51.545Z,100143.42
2018-11-10T13:49:55.630Z,100147.73
2018-11-10T13:53:00.510Z,100153.15
2018-11-10T13:56:04.091Z,100147.73
2018-11-10T13:59:08.530Z,100153.15
2018-11-10T14:02:18.922Z,100151.50
2018-11-10T14:05:22.823Z,100155.35
2018-11-10T14:08:26.893Z,100154.06
2018-11-10T14:11:30.748Z,100152.32
2018-11-10T14:14:34.612Z,100154.89
2018-11-10T14:17:38.963Z,100145.90
2018-11-10T14:20:43.044Z,100152.42
2018-11-10T14:23:47.060Z,100151.13
2018-11-10T14:26:51.253Z,100153.34
2018-11-10T14:29:55.457Z,100155.91
2018-11-10T14:32:59.649Z,100160.59
2018-11-10T14:36:03.863Z,100157.66
2018-11-10T14:39:09.492Z,100161.14
2018-11-10T14:42:13.541Z,100159.48
2018-11-10T14:45:18.688Z,100163.44
2018-11-10T14:48:22.553Z,100163.44
2018-11-10T14:51:27.310Z,100169.04
2018-11-10T14:54:31.177Z,100178.09
2018-11-10T14:57:35.532Z,100174.80
2018-11-10T15:00:39.389Z,100181.95
2018-11-10T15:03:43.248Z,100176.08
2018-11-10T15:06:47.460Z,100175.34
2018-11-10T15:09:51.349Z,100175.80
2018-11-10T15:12:55.215Z,100178.28
2018-11-10T15:15:59.449Z,100182.33
2018-11-10T15:19:03.733Z,100183.70
2018-11-10T15:22:07.894Z,100170.86
2018-11-10T15:25:14.665Z,100176.61
2018-11-10T15:28:18.706Z,100174.95
2018-11-10T15:31:22.573Z,100182.02
2018-11-10T15:34:26.434Z,100175.14
2018-11-10T15:37:30.341Z,100173.03
2018-11-10T15:40:34.427Z,100177.44
2018-11-10T15:43:38.372Z,100177.16
2018-11-10T15:46:42.251Z,100174.94
2018-11-10T15:49:46.102Z,100175.48
2018-11-10T15:52:50.182Z,100177.14
2018-11-10T15:55:54.229Z,100178.60
2018-11-10T15:59:04.874Z,100177.32
2018-11-10T16:02:08.777Z,100178.39
2018-11-10T16:05:13.484Z,100178.94
2018-11-10T16:08:17.526Z,100182.88
2018-11-10T16:11:21.766Z,100179.86
2018-11-10T16:14:25.629Z,100181.05
2018-11-10T16:17:29.496Z,100181.11
2018-11-10T16:20:33.362Z,100179.64
2018-11-10T16:23:37.242Z,100186.06
2018-11-10T16:26:41.098Z,100186.42
2018-11-10T16:29:45.167Z,100183.67
2018-11-10T16:32:49.632Z,100180.37
2018-11-10T16:35:53.687Z,100174.09
2018-11-10T16:38:57.769Z,100180.70
2018-11-10T16:42:01.632Z,100187.94
2018-11-10T16:45:06.189Z,100179.59
2018-11-10T16:48:10.081Z,100176.11
2018-11-10T16:51:14.037Z,100180.88
2018-11-10T16:54:17.901Z,100179.22
2018-11-10T16:57:21.823Z,100172.07
2018-11-10T17:00:25.881Z,100177.81
2018-11-10T17:03:30.122Z,100171.77
2018-11-10T17:06:34.026Z,100167.36
2018-11-10T17:09:37.877Z,100161.85
2018-11-10T17:12:42.524Z,100163.23
2018-11-10T17:15:46.389Z,100166.31
2018-11-10T17:18:50.268Z,100167.77
2018-11-10T17:21:54.427Z,100163.46
2018-11-10T17:24:58.353Z,100166.58
2018-11-10T17:28:02.227Z,100168.31
2018-11-10T17:31:06.632Z,100169.97
2018-11-10T17:34:10.489Z,100172.08
2018-11-10T17:37:14.365Z,100170.52
2018-11-10T17:40:18.480Z,100167.03
2018-11-10T17:43:22.593Z,100169.69
2018-11-10T17:46:26.455Z,100162.96
2018-11-10T17:49:30.418Z,100160.39
2018-11-10T17:52:34.396Z,100159.99
2018-11-10T17:55:38.393Z,100164.19
2018-11-10T17:58:42.726Z,100154.03
2018-11-10T18:01:47.266Z,100151.41
2018-11-10T18:04:51.217Z,100155.66
2018-11-10T18:07:55.091Z,100155.41
2018-11-10T18:10:58.944Z,100150.82
2018-11-10T18:14:02.820Z,100146.52
2018-11-10T18:17:07.000Z,100142.84
2018-11-10T18:20:12.295Z,100146.70
2018-11-10T18:23:16.139Z,100141.20
2018-11-10T18:26:20.089Z,100137.34
2018-11-10T18:29:24.520Z,100128.37
2018-11-10T18:32:28.431Z,100132.67
2018-11-10T18:35:32.776Z,100134.88
2018-11-10T18:38:36.643Z,100130.66
2018-11-10T18:41:40.792Z,100132.30
2018-11-10T18:44:44.661Z,100130.66
2018-11-10T18:47:48.508Z,100133.67
2018-11-10T18:50:52.368Z,100127.32
2018-11-10T18:53:56.237Z,100130.06
2018-11-10T18:57:00.465Z,100127.09
2018-11-10T19:00:04.629Z,100132.91
2018-11-10T19:03:08.709Z,100124.84
2018-11-10T19:06:12.958Z,100129.88
2018-11-10T19:09:16.966Z,100132.91
2018-11-10T19:12:21.012Z,100127.95
2018-11-10T19:15:24.876Z,100128.32
2018-11-10T19:18:29.273Z,100129.52
2018-11-10T19:21:33.169Z,100135.65
2018-11-10T19:24:37.021Z,100133.45
2018-11-10T19:27:41.216Z,100129.38
2018-11-10T19:30:45.068Z,100124.38
2018-11-10T19:33:49.312Z,100129.88
2018-11-10T19:36:53.343Z,100128.41
2018-11-10T19:39:57.728Z,100125.48
2018-11-10T19:43:01.609Z,100126.02
2018-11-10T19:46:06.105Z,100123.83
2018-11-10T19:49:10.550Z,100119.16
2018-11-10T19:52:14.811Z,100112.73
2018-11-10T19:55:18.668Z,100112.65
2018-11-10T19:58:22.521Z,100118.15
2018-11-10T20:01:27.425Z,100117.78
2018-11-10T20:04:31.315Z,100119.06
2018-11-10T20:07:35.562Z,100122.45
2018-11-10T20:10:39.573Z,100134.82
2018-11-10T20:13:43.470Z,100140.78
2018-11-10T20:16:47.519Z,100135.19
2018-11-10T20:19:51.382Z,100131.80
2018-11-10T20:22:55.453Z,100134.37
2018-11-10T20:25:59.321Z,100139.86
2018-11-10T20:29:03.522Z,100127.03
2018-11-10T20:32:07.373Z,100136.47
2018-11-10T20:35:12.917Z,100132.17
2018-11-10T20:38:17.003Z,100132.53
2018-11-10T20:41:20.873Z,100138.49
2018-11-10T20:44:24.921Z,100144.45
2018-11-10T20:47:29.129Z,100147.38
2018-11-10T20:50:33.203Z,100141.80
2018-11-10T20:53:37.624Z,100140.97
2018-11-10T20:56:41.813Z,100128.97
2018-11-10T20:59:45.999Z,100124.70
2018-11-10T21:02:49.856Z,100124.70
2018-11-10T21:05:53.801Z,100127.17
2018-11-10T21:08:57.781Z,100127.54
2018-11-10T21:12:01.646Z,100128.83
2018-11-10T21:15:06.328Z,100130.48
2018-11-10T21:18:10.202Z,100128.37
2018-11-10T21:21:14.405Z,100121.86
2018-11-10T21:24:18.262Z,100122.23
2018-11-10T21:27:22.122Z,100121.77
2018-11-10T21:30:25.968Z,100125.63
2018-11-10T21:33:29.916Z,100132.31
2018-11-10T21:36:33.900Z,100125.90
2018-11-10T21:39:37.763Z,100130.94
2018-11-10T21:42:42.079Z,100127.92
2018-11-10T21:45:45.930Z,100124.93
2018-11-10T21:48:49.798Z,100124.87
2018-11-10T21:51:54.317Z,100131.20
2018-11-10T21:54:58.522Z,100127.80
2018-11-10T21:58:02.370Z,100138.34
2018-11-10T22:01:06.464Z,100133.13
2018-11-10T22:04:10.317Z,100132.67
2018-11-10T22:07:14.174Z,100121.86
2018-11-10T22:10:18.726Z,100130.38
2018-11-10T22:13:22.586Z,100126.89
2018-11-10T22:16:26.645Z,100131.97
2018-11-10T22:19:30.502Z,100126.02
2018-11-10T22:22:34.366Z,100125.09
2018-11-10T22:25:38.748Z,100115.66
2018-11-10T22:28:42.605Z,100115.56
2018-11-10T22:31:46.450Z,100114.74
2018-11-10T22:34:50.648Z,100128.03
2018-11-10T22:37:54.506Z,100122.44
2018-11-10T22:40:58.367Z,100108.78
2018-11-10T22:44:02.228Z,100107.87
2018-11-10T22:47:06.630Z,100108.33
2018-11-10T22:50:13.785Z,100111.63
2018-11-10T22:53:17.842Z,100107.77
2018-11-10T22:56:21.691Z,100102.19
2018-11-10T22:59:25.880Z,100108.14
2018-11-10T23:02:30.315Z,100105.58
2018-11-10T23:05:34.373Z,100103.84
2018-11-10T23:08:38.794Z,100113.19
2018-11-10T23:11:42.866Z,100110.98
2018-11-10T23:14:46.720Z,100110.53
2018-11-10T23:17:50.927Z,100108.78
2018-11-10T23:20:54.784Z,100111.75
2018-11-10T23:23:59.029Z,100099.28
2018-11-10T23:27:03.373Z,100104.41
2018-11-10T23:30:14.904Z,100100.94
2018-11-10T23:33:18.953Z,100097.91
2018-11-10T23:36:22.807Z,100100.11
2018-11-10T23:39:26.987Z,100103.87
2018-11-10T23:42:30.842Z,100094.42
2018-11-10T23:45:35.263Z,100097.81
2018-11-10T23:48:39.881Z,100096.08
2018-11-10T23:51:43.737Z,100096.44
2018-11-10T23:54:47.594Z,100098.64
2018-11-10T23:57:51.468Z,100096.91
